sensor_id;sensor_type;location;lat;lon;timestamp;temperature;humidity
21493;DHT22;10908;50.690;4.400;2023-03-24T00:02:16;12.40;90.60
21493;DHT22;10908;50.690;4.400;2023-03-24T00:04:42;12.30;90.60
21493;DHT22;10908;50.690;4.400;2023-03-24T00:07:09;12.40;90.60
21493;DHT22;10908;50.690;4.400;2023-03-24T00:09:43;12.40;90.50
21493;DHT22;10908;50.690;4.400;2023-03-24T00:12:10;12.40;90.50
21493;DHT22;10908;50.690;4.400;2023-03-24T00:14:37;12.40;90.60
21493;DHT22;10908;50.690;4.400;2023-03-24T00:17:08;12.40;90.70
21493;DHT22;10908;50.690;4.400;2023-03-24T00:19:37;12.40;90.60
21493;DHT22;10908;50.690;4.400;2023-03-24T00:22:04;12.40;90.60
21493;DHT22;10908;50.690;4.400;2023-03-24T00:24:30;12.40;90.60
21493;DHT22;10908;50.690;4.400;2023-03-24T00:26:56;12.40;90.60
21493;DHT22;10908;50.690;4.400;2023-03-24T00:29:23;12.40;90.60
21493;DHT22;10908;50.690;4.400;2023-03-24T00:31:50;12.40;90.70
21493;DHT22;10908;50.690;4.400;2023-03-24T00:34:18;12.40;90.70
21493;DHT22;10908;50.690;4.400;2023-03-24T00:36:49;12.40;90.60
21493;DHT22;10908;50.690;4.400;2023-03-24T00:39:18;12.40;90.60
21493;DHT22;10908;50.690;4.400;2023-03-24T00:41:45;12.40;90.60
21493;DHT22;10908;50.690;4.400;2023-03-24T00:44:15;12.40;90.70
21493;DHT22;10908;50.690;4.400;2023-03-24T00:46:48;12.40;90.80
21493;DHT22;10908;50.690;4.400;2023-03-24T00:49:25;12.40;90.70
21493;DHT22;10908;50.690;4.400;2023-03-24T00:52:14;12.40;90.50
21493;DHT22;10908;50.690;4.400;2023-03-24T00:54:42;12.40;90.50
21493;DHT22;10908;50.690;4.400;2023-03-24T00:57:11;12.40;90.40
21493;DHT22;10908;50.690;4.400;2023-03-24T15:55:30;13.40;76.80
21493;DHT22;10908;50.690;4.400;2023-03-24T15:57:58;13.70;73.80
21493;DHT22;10908;50.690;4.400;2023-03-24T16:00:28;13.70;74.30
21493;DHT22;10908;50.690;4.400;2023-03-24T16:02:55;13.50;74.40
21493;DHT22;10908;50.690;4.400;2023-03-24T16:05:32;13.50;74.60
21493;DHT22;10908;50.690;4.400;2023-03-24T16:08:06;13.30;74.40
21493;DHT22;10908;50.690;4.400;2023-03-24T16:10:39;13.10;74.80
21493;DHT22;10908;50.690;4.400;2023-03-24T16:13:18;13.10;75.30
21493;DHT22;10908;50.690;4.400;2023-03-24T16:18:26;13.00;75.60
21493;DHT22;10908;50.690;4.400;2023-03-24T16:20:52;13.00;76.10
21493;DHT22;10908;50.690;4.400;2023-03-24T16:23:18;13.10;76.00
21493;DHT22;10908;50.690;4.400;2023-03-24T16:25:43;13.10;75.90
21493;DHT22;10908;50.690;4.400;2023-03-24T16:28:16;13.10;75.10
21493;DHT22;10908;50.690;4.400;2023-03-24T16:30:43;13.10;74.50
21493;DHT22;10908;50.690;4.400;2023-03-24T16:33:09;13.10;73.90
21493;DHT22;10908;50.690;4.400;2023-03-24T16:35:37;12.90;73.50
21493;DHT22;10908;50.690;4.400;2023-03-24T16:38:03;13.00;73.10
21493;DHT22;10908;50.690;4.400;2023-03-24T16:40:34;12.90;73.30
21493;DHT22;10908;50.690;4.400;2023-03-24T16:43:01;13.00;74.00
21493;DHT22;10908;50.690;4.400;2023-03-24T16:45:28;12.90;74.50
21493;DHT22;10908;50.690;4.400;2023-03-24T16:47:54;12.90;74.70
21493;DHT22;10908;50.690;4.400;2023-03-24T16:50:39;12.80;74.90
21493;DHT22;10908;50.690;4.400;2023-03-24T16:53:05;12.80;75.00
21493;DHT22;10908;50.690;4.400;2023-03-24T16:55:34;12.80;75.10
21493;DHT22;10908;50.690;4.400;2023-03-24T16:58:00;12.80;75.40
21493;DHT22;10908;50.690;4.400;2023-03-24T17:00:26;12.70;75.60
21493;DHT22;10908;50.690;4.400;2023-03-24T17:02:54;12.60;76.20
21493;DHT22;10908;50.690;4.400;2023-03-24T17:05:23;12.60;76.40
21493;DHT22;10908;50.690;4.400;2023-03-24T17:07:50;12.70;77.70
21493;DHT22;10908;50.690;4.400;2023-03-24T17:10:16;12.50;79.50
21493;DHT22;10908;50.690;4.400;2023-03-24T17:12:42;12.00;80.50
21493;DHT22;10908;50.690;4.400;2023-03-24T17:15:21;11.50;80.20
21493;DHT22;10908;50.690;4.400;2023-03-24T17:17:47;11.20;81.20
21493;DHT22;10908;50.690;4.400;2023-03-24T17:20:13;10.90;81.10
21493;DHT22;10908;50.690;4.400;2023-03-24T17:22:41;10.80;81.10
21493;DHT22;10908;50.690;4.400;2023-03-24T17:25:08;10.80;81.30
21493;DHT22;10908;50.690;4.400;2023-03-24T17:27:34;10.70;81.10
21493;DHT22;10908;50.690;4.400;2023-03-24T17:30:00;10.80;81.60
21493;DHT22;10908;50.690;4.400;2023-03-24T17:32:27;10.80;82.60
21493;DHT22;10908;50.690;4.400;2023-03-24T17:34:54;10.80;82.00
21493;DHT22;10908;50.690;4.400;2023-03-24T17:37:19;10.80;82.00
21493;DHT22;10908;50.690;4.400;2023-03-24T17:39:45;10.60;82.20
21493;DHT22;10908;50.690;4.400;2023-03-24T17:42:11;10.60;82.80
21493;DHT22;10908;50.690;4.400;2023-03-24T17:44:37;10.70;82.80
21493;DHT22;10908;50.690;4.400;2023-03-24T17:47:03;10.60;82.80
21493;DHT22;10908;50.690;4.400;2023-03-24T17:49:28;10.60;83.40
21493;DHT22;10908;50.690;4.400;2023-03-24T17:51:54;10.60;83.80
21493;DHT22;10908;50.690;4.400;2023-03-24T17:54:20;10.70;83.80
21493;DHT22;10908;50.690;4.400;2023-03-24T17:56:46;10.70;83.60
21493;DHT22;10908;50.690;4.400;2023-03-24T17:59:12;10.50;83.90
21493;DHT22;10908;50.690;4.400;2023-03-24T18:01:38;10.60;84.00
21493;DHT22;10908;50.690;4.400;2023-03-24T18:04:05;10.50;84.00
21493;DHT22;10908;50.690;4.400;2023-03-24T18:06:30;10.40;83.90
21493;DHT22;10908;50.690;4.400;2023-03-24T18:08:56;10.40;84.00
21493;DHT22;10908;50.690;4.400;2023-03-24T18:11:22;10.30;84.30
21493;DHT22;10908;50.690;4.400;2023-03-24T18:13:48;10.20;84.10
21493;DHT22;10908;50.690;4.400;2023-03-24T18:16:15;10.10;84.10
21493;DHT22;10908;50.690;4.400;2023-03-24T18:18:41;10.10;84.20
21493;DHT22;10908;50.690;4.400;2023-03-24T18:21:09;10.10;83.90
21493;DHT22;10908;50.690;4.400;2023-03-24T18:23:36;10.10;83.50
21493;DHT22;10908;50.690;4.400;2023-03-24T18:26:05;10.10;83.60
21493;DHT22;10908;50.690;4.400;2023-03-24T18:28:33;10.10;83.30
21493;DHT22;10908;50.690;4.400;2023-03-24T18:30:59;10.10;83.00
21493;DHT22;10908;50.690;4.400;2023-03-24T18:33:25;10.10;83.10
21493;DHT22;10908;50.690;4.400;2023-03-24T18:35:56;10.00;83.10
21493;DHT22;10908;50.690;4.400;2023-03-24T18:38:23;10.10;83.10
21493;DHT22;10908;50.690;4.400;2023-03-24T18:41:16;10.10;82.50
21493;DHT22;10908;50.690;4.400;2023-03-24T18:43:42;10.00;82.40
21493;DHT22;10908;50.690;4.400;2023-03-24T18:46:12;9.90;81.90
21493;DHT22;10908;50.690;4.400;2023-03-24T18:48:39;9.90;82.00
21493;DHT22;10908;50.690;4.400;2023-03-24T18:51:06;9.90;81.80
21493;DHT22;10908;50.690;4.400;2023-03-24T18:53:32;9.90;81.80
21493;DHT22;10908;50.690;4.400;2023-03-24T18:55:59;9.90;81.70
21493;DHT22;10908;50.690;4.400;2023-03-24T18:58:26;9.90;81.60
21493;DHT22;10908;50.690;4.400;2023-03-24T19:00:54;9.80;81.50
21493;DHT22;10908;50.690;4.400;2023-03-24T19:03:21;9.80;81.30
21493;DHT22;10908;50.690;4.400;2023-03-24T19:05:48;9.80;81.30
21493;DHT22;10908;50.690;4.400;2023-03-24T19:08:14;9.70;81.30
21493;DHT22;10908;50.690;4.400;2023-03-24T19:10:41;9.70;81.80
21493;DHT22;10908;50.690;4.400;2023-03-24T19:13:12;9.70;81.60
21493;DHT22;10908;50.690;4.400;2023-03-24T19:15:39;9.70;81.90
21493;DHT22;10908;50.690;4.400;2023-03-24T19:18:06;9.70;82.00
21493;DHT22;10908;50.690;4.400;2023-03-24T19:20:32;9.70;82.00
21493;DHT22;10908;50.690;4.400;2023-03-24T19:22:59;9.70;81.90
21493;DHT22;10908;50.690;4.400;2023-03-24T19:25:25;9.70;82.30
21493;DHT22;10908;50.690;4.400;2023-03-24T19:27:51;9.70;82.20
21493;DHT22;10908;50.690;4.400;2023-03-24T19:30:17;9.60;82.20
21493;DHT22;10908;50.690;4.400;2023-03-24T19:32:43;9.60;82.40
21493;DHT22;10908;50.690;4.400;2023-03-24T19:35:11;9.60;82.50
21493;DHT22;10908;50.690;4.400;2023-03-24T19:37:37;9.60;82.50
21493;DHT22;10908;50.690;4.400;2023-03-24T19:40:04;9.70;82.30
21493;DHT22;10908;50.690;4.400;2023-03-24T19:42:32;9.80;82.00
21493;DHT22;10908;50.690;4.400;2023-03-24T19:44:58;9.80;82.20
21493;DHT22;10908;50.690;4.400;2023-03-24T19:47:23;9.80;81.90
21493;DHT22;10908;50.690;4.400;2023-03-24T19:49:49;9.80;82.10
21493;DHT22;10908;50.690;4.400;2023-03-24T19:52:15;9.80;82.10
21493;DHT22;10908;50.690;4.400;2023-03-24T19:54:42;9.80;82.20
21493;DHT22;10908;50.690;4.400;2023-03-24T19:57:08;9.90;82.00
21493;DHT22;10908;50.690;4.400;2023-03-24T19:59:33;9.90;81.80
21493;DHT22;10908;50.690;4.400;2023-03-24T20:01:59;10.00;82.10
21493;DHT22;10908;50.690;4.400;2023-03-24T20:04:25;10.00;82.30
21493;DHT22;10908;50.690;4.400;2023-03-24T20:06:51;9.90;82.40
21493;DHT22;10908;50.690;4.400;2023-03-24T20:09:17;9.90;82.80
21493;DHT22;10908;50.690;4.400;2023-03-24T20:11:42;9.90;83.20
21493;DHT22;10908;50.690;4.400;2023-03-24T20:14:08;9.90;83.80
21493;DHT22;10908;50.690;4.400;2023-03-24T20:16:34;9.90;84.20
21493;DHT22;10908;50.690;4.400;2023-03-24T20:19:00;9.90;84.80
21493;DHT22;10908;50.690;4.400;2023-03-24T20:21:25;9.90;85.00
21493;DHT22;10908;50.690;4.400;2023-03-24T20:23:52;9.90;84.90
21493;DHT22;10908;50.690;4.400;2023-03-24T20:26:18;9.80;85.20
21493;DHT22;10908;50.690;4.400;2023-03-24T20:28:44;9.90;85.10
21493;DHT22;10908;50.690;4.400;2023-03-24T20:31:10;9.80;85.10
21493;DHT22;10908;50.690;4.400;2023-03-24T20:33:36;9.80;85.40
21493;DHT22;10908;50.690;4.400;2023-03-24T20:36:02;9.70;85.70
21493;DHT22;10908;50.690;4.400;2023-03-24T20:38:28;9.70;85.60
21493;DHT22;10908;50.690;4.400;2023-03-24T20:41:05;9.80;85.60
21493;DHT22;10908;50.690;4.400;2023-03-24T20:43:32;9.80;85.70
21493;DHT22;10908;50.690;4.400;2023-03-24T20:46:00;9.80;85.60
21493;DHT22;10908;50.690;4.400;2023-03-24T20:48:26;9.80;85.50
21493;DHT22;10908;50.690;4.400;2023-03-24T20:50:52;9.70;84.90
21493;DHT22;10908;50.690;4.400;2023-03-24T20:53:18;9.70;84.80
21493;DHT22;10908;50.690;4.400;2023-03-24T20:55:44;9.70;84.70
21493;DHT22;10908;50.690;4.400;2023-03-24T20:58:19;9.60;84.30
21493;DHT22;10908;50.690;4.400;2023-03-24T21:00:46;9.60;84.10
21493;DHT22;10908;50.690;4.400;2023-03-24T21:03:12;9.50;83.90
21493;DHT22;10908;50.690;4.400;2023-03-24T21:05:38;9.60;84.00
21493;DHT22;10908;50.690;4.400;2023-03-24T21:08:04;9.50;83.80
21493;DHT22;10908;50.690;4.400;2023-03-24T21:10:30;9.60;84.00
21493;DHT22;10908;50.690;4.400;2023-03-24T21:12:56;9.70;84.10
21493;DHT22;10908;50.690;4.400;2023-03-24T21:15:22;9.60;84.10
21493;DHT22;10908;50.690;4.400;2023-03-24T21:17:49;9.60;84.10
21493;DHT22;10908;50.690;4.400;2023-03-24T21:20:15;9.60;84.20
21493;DHT22;10908;50.690;4.400;2023-03-24T21:22:45;9.60;84.00
21493;DHT22;10908;50.690;4.400;2023-03-24T21:25:29;9.70;84.10
21493;DHT22;10908;50.690;4.400;2023-03-24T21:27:55;9.60;84.10
21493;DHT22;10908;50.690;4.400;2023-03-24T21:30:25;9.50;84.20
21493;DHT22;10908;50.690;4.400;2023-03-24T21:32:53;9.50;84.40
21493;DHT22;10908;50.690;4.400;2023-03-24T21:35:19;9.60;84.60
21493;DHT22;10908;50.690;4.400;2023-03-24T21:37:46;9.60;84.70
21493;DHT22;10908;50.690;4.400;2023-03-24T21:40:13;9.60;84.70
